sensor_id;sensor_type;location;lat;lon;timestamp;temperature;humidity
18207;DHT22;9229;52.354;20.886;2023-02-05T00:00:56;-5.10;99.90
18207;DHT22;9229;52.354;20.886;2023-02-05T00:06:00;-5.00;99.90
18207;DHT22;9229;52.354;20.886;2023-02-05T00:11:03;-5.00;99.90
18207;DHT22;9229;52.354;20.886;2023-02-05T00:16:12;-4.90;99.90
18207;DHT22;9229;52.354;20.886;2023-02-05T00:21:16;-4.80;99.90
18207;DHT22;9229;52.354;20.886;2023-02-05T00:26:19;-4.80;99.90
18207;DHT22;9229;52.354;20.886;2023-02-05T00:31:23;-4.70;99.90
18207;DHT22;9229;52.354;20.886;2023-02-05T00:36:26;-4.60;99.90
18207;DHT22;9229;52.354;20.886;2023-02-05T00:41:28;-4.50;99.90
18207;DHT22;9229;52.354;20.886;2023-02-05T00:46:33;-4.40;99.90
18207;DHT22;9229;52.354;20.886;2023-02-05T00:51:35;-4.40;99.90
18207;DHT22;9229;52.354;20.886;2023-02-05T00:56:38;-4.30;99.90
18207;DHT22;9229;52.354;20.886;2023-02-05T01:01:41;-4.30;99.90
18207;DHT22;9229;52.354;20.886;2023-02-05T01:06:43;-4.20;99.90
18207;DHT22;9229;52.354;20.886;2023-02-05T01:11:45;-4.20;99.90
18207;DHT22;9229;52.354;20.886;2023-02-05T01:16:52;-4.30;99.90
18207;DHT22;9229;52.354;20.886;2023-02-05T01:21:54;-4.00;99.90
18207;DHT22;9229;52.354;20.886;2023-02-05T01:26:56;-4.00;99.90
18207;DHT22;9229;52.354;20.886;2023-02-05T01:32:00;-4.00;99.90
18207;DHT22;9229;52.354;20.886;2023-02-05T01:37:02;-4.00;99.90
18207;DHT22;9229;52.354;20.886;2023-02-05T01:42:14;-3.90;99.90
18207;DHT22;9229;52.354;20.886;2023-02-05T01:47:18;-3.90;99.90
18207;DHT22;9229;52.354;20.886;2023-02-05T01:52:20;-3.90;99.90
18207;DHT22;9229;52.354;20.886;2023-02-05T01:57:23;-3.80;99.90
18207;DHT22;9229;52.354;20.886;2023-02-05T02:02:28;-3.70;99.90
18207;DHT22;9229;52.354;20.886;2023-02-05T02:07:31;-3.70;99.90
18207;DHT22;9229;52.354;20.886;2023-02-05T02:12:35;-3.70;99.90
18207;DHT22;9229;52.354;20.886;2023-02-05T02:17:44;-3.70;99.90
18207;DHT22;9229;52.354;20.886;2023-02-05T02:23:05;-3.80;99.90
18207;DHT22;9229;52.354;20.886;2023-02-05T02:28:14;-3.80;99.90
18207;DHT22;9229;52.354;20.886;2023-02-05T02:33:26;-3.80;99.90
18207;DHT22;9229;52.354;20.886;2023-02-05T02:38:31;-3.70;99.90
18207;DHT22;9229;52.354;20.886;2023-02-05T02:43:40;-3.70;99.90
18207;DHT22;9229;52.354;20.886;2023-02-05T02:48:45;-3.70;99.90
18207;DHT22;9229;52.354;20.886;2023-02-05T02:53:52;-3.60;99.90
18207;DHT22;9229;52.354;20.886;2023-02-05T02:59:00;-3.60;99.90
18207;DHT22;9229;52.354;20.886;2023-02-05T03:04:10;-3.60;99.90
18207;DHT22;9229;52.354;20.886;2023-02-05T03:09:20;-3.50;99.90
18207;DHT22;9229;52.354;20.886;2023-02-05T03:14:27;-3.50;99.90
18207;DHT22;9229;52.354;20.886;2023-02-05T03:19:33;-3.70;99.90
18207;DHT22;9229;52.354;20.886;2023-02-05T03:24:35;-3.50;99.90
18207;DHT22;9229;52.354;20.886;2023-02-05T03:29:40;-3.50;99.90
18207;DHT22;9229;52.354;20.886;2023-02-05T03:34:58;-3.50;99.90
18207;DHT22;9229;52.354;20.886;2023-02-05T03:40:08;-3.50;99.90
18207;DHT22;9229;52.354;20.886;2023-02-05T03:45:23;-3.40;99.90
18207;DHT22;9229;52.354;20.886;2023-02-05T03:50:32;-3.40;99.90
18207;DHT22;9229;52.354;20.886;2023-02-05T03:55:43;-3.50;99.90
18207;DHT22;9229;52.354;20.886;2023-02-05T04:00:48;-3.50;99.90
18207;DHT22;9229;52.354;20.886;2023-02-05T04:05:50;-3.50;99.90
18207;DHT22;9229;52.354;20.886;2023-02-05T04:10:55;-3.50;99.90
18207;DHT22;9229;52.354;20.886;2023-02-05T04:16:00;-3.50;99.90
18207;DHT22;9229;52.354;20.886;2023-02-05T04:21:03;-3.50;99.90
18207;DHT22;9229;52.354;20.886;2023-02-05T04:26:06;-3.50;99.90
18207;DHT22;9229;52.354;20.886;2023-02-05T04:31:20;-3.50;99.90
18207;DHT22;9229;52.354;20.886;2023-02-05T04:36:22;-3.50;99.90
18207;DHT22;9229;52.354;20.886;2023-02-05T04:41:25;-3.50;99.90
18207;DHT22;9229;52.354;20.886;2023-02-05T04:46:29;-3.50;99.90
18207;DHT22;9229;52.354;20.886;2023-02-05T04:51:31;-3.60;99.90
18207;DHT22;9229;52.354;20.886;2023-02-05T04:56:33;-3.50;99.90
18207;DHT22;9229;52.354;20.886;2023-02-05T05:01:36;-3.50;99.90
18207;DHT22;9229;52.354;20.886;2023-02-05T05:06:38;-3.60;99.90
18207;DHT22;9229;52.354;20.886;2023-02-05T05:11:40;-3.60;99.90
18207;DHT22;9229;52.354;20.886;2023-02-05T05:16:44;-3.60;99.90
18207;DHT22;9229;52.354;20.886;2023-02-05T05:21:46;-3.60;99.90
18207;DHT22;9229;52.354;20.886;2023-02-05T05:26:48;-3.50;99.90
18207;DHT22;9229;52.354;20.886;2023-02-05T05:31:52;-3.50;99.90
18207;DHT22;9229;52.354;20.886;2023-02-05T05:36:54;-3.50;99.90
18207;DHT22;9229;52.354;20.886;2023-02-05T05:41:57;-3.60;99.90
18207;DHT22;9229;52.354;20.886;2023-02-05T05:47:21;-3.60;99.90
18207;DHT22;9229;52.354;20.886;2023-02-05T05:52:22;-3.60;99.90
18207;DHT22;9229;52.354;20.886;2023-02-05T05:57:25;-3.60;99.90
18207;DHT22;9229;52.354;20.886;2023-02-05T06:02:28;-3.50;99.90
18207;DHT22;9229;52.354;20.886;2023-02-05T06:07:31;-3.50;99.90
18207;DHT22;9229;52.354;20.886;2023-02-05T06:12:33;-3.60;99.90
18207;DHT22;9229;52.354;20.886;2023-02-05T06:17:37;-3.50;99.90
18207;DHT22;9229;52.354;20.886;2023-02-05T06:22:40;-3.40;99.90
18207;DHT22;9229;52.354;20.886;2023-02-05T06:27:42;-3.50;99.90
18207;DHT22;9229;52.354;20.886;2023-02-05T06:32:47;-3.40;99.90
18207;DHT22;9229;52.354;20.886;2023-02-05T06:37:49;-3.40;99.90
18207;DHT22;9229;52.354;20.886;2023-02-05T06:42:51;-3.40;99.90
18207;DHT22;9229;52.354;20.886;2023-02-05T06:47:55;-3.50;99.90
18207;DHT22;9229;52.354;20.886;2023-02-05T06:52:57;-3.40;99.90
18207;DHT22;9229;52.354;20.886;2023-02-05T06:58:00;-3.40;99.90
18207;DHT22;9229;52.354;20.886;2023-02-05T07:03:04;-3.40;99.90
18207;DHT22;9229;52.354;20.886;2023-02-05T07:08:06;-3.30;99.90
18207;DHT22;9229;52.354;20.886;2023-02-05T07:13:10;-3.30;99.90
18207;DHT22;9229;52.354;20.886;2023-02-05T07:18:14;-3.30;99.90
18207;DHT22;9229;52.354;20.886;2023-02-05T07:23:16;-3.30;99.90
18207;DHT22;9229;52.354;20.886;2023-02-05T07:28:18;-3.20;99.90
18207;DHT22;9229;52.354;20.886;2023-02-05T07:33:22;-3.10;99.90
18207;DHT22;9229;52.354;20.886;2023-02-05T07:38:24;-3.10;99.90
18207;DHT22;9229;52.354;20.886;2023-02-05T07:43:28;-3.10;99.90
18207;DHT22;9229;52.354;20.886;2023-02-05T07:48:32;-3.00;99.90
18207;DHT22;9229;52.354;20.886;2023-02-05T07:53:50;-3.00;99.90
18207;DHT22;9229;52.354;20.886;2023-02-05T07:58:57;-3.00;99.90
18207;DHT22;9229;52.354;20.886;2023-02-05T08:04:00;-2.90;99.90
18207;DHT22;9229;52.354;20.886;2023-02-05T08:09:03;-2.80;99.90
18207;DHT22;9229;52.354;20.886;2023-02-05T08:14:04;-2.70;99.90
18207;DHT22;9229;52.354;20.886;2023-02-05T08:19:12;-2.60;99.90
18207;DHT22;9229;52.354;20.886;2023-02-05T08:24:14;-2.50;99.90
18207;DHT22;9229;52.354;20.886;2023-02-05T08:29:16;-2.40;99.90
18207;DHT22;9229;52.354;20.886;2023-02-05T08:34:20;-2.30;99.90
18207;DHT22;9229;52.354;20.886;2023-02-05T08:39:22;-2.30;99.90
18207;DHT22;9229;52.354;20.886;2023-02-05T08:44:26;-2.10;99.90
18207;DHT22;9229;52.354;20.886;2023-02-05T08:49:30;-2.00;99.90
18207;DHT22;9229;52.354;20.886;2023-02-05T08:54:32;-1.90;99.90
18207;DHT22;9229;52.354;20.886;2023-02-05T08:59:34;-1.80;99.90
18207;DHT22;9229;52.354;20.886;2023-02-05T09:04:38;-1.70;99.90
18207;DHT22;9229;52.354;20.886;2023-02-05T09:09:40;-1.60;99.90
18207;DHT22;9229;52.354;20.886;2023-02-05T09:14:42;-1.60;99.90
18207;DHT22;9229;52.354;20.886;2023-02-05T09:19:46;-1.50;99.90
18207;DHT22;9229;52.354;20.886;2023-02-05T09:24:48;-1.40;99.90
18207;DHT22;9229;52.354;20.886;2023-02-05T09:29:50;-1.40;99.90
18207;DHT22;9229;52.354;20.886;2023-02-05T09:34:53;-1.30;99.90
18207;DHT22;9229;52.354;20.886;2023-02-05T09:39:55;-1.30;99.90
18207;DHT22;9229;52.354;20.886;2023-02-05T09:45:10;-1.20;99.90
18207;DHT22;9229;52.354;20.886;2023-02-05T09:50:23;-1.20;99.90
18207;DHT22;9229;52.354;20.886;2023-02-05T09:55:31;-1.10;99.90
18207;DHT22;9229;52.354;20.886;2023-02-05T10:00:46;-1.10;99.90
18207;DHT22;9229;52.354;20.886;2023-02-05T10:06:04;-1.10;99.90
18207;DHT22;9229;52.354;20.886;2023-02-05T10:11:14;-1.00;99.90
18207;DHT22;9229;52.354;20.886;2023-02-05T10:16:33;-0.90;99.90
18207;DHT22;9229;52.354;20.886;2023-02-05T10:22:03;-0.90;99.90
18207;DHT22;9229;52.354;20.886;2023-02-05T10:27:17;-0.90;99.90
18207;DHT22;9229;52.354;20.886;2023-02-05T10:32:22;-0.80;99.90
18207;DHT22;9229;52.354;20.886;2023-02-05T10:37:34;-0.90;99.90
18207;DHT22;9229;52.354;20.886;2023-02-05T10:42:48;-0.90;99.90
18207;DHT22;9229;52.354;20.886;2023-02-05T10:48:04;-1.00;99.90
18207;DHT22;9229;52.354;20.886;2023-02-05T10:53:16;-1.10;99.90
18207;DHT22;9229;52.354;20.886;2023-02-05T10:58:43;-1.10;99.90
18207;DHT22;9229;52.354;20.886;2023-02-05T11:03:58;-1.10;99.90
18207;DHT22;9229;52.354;20.886;2023-02-05T11:09:28;-1.00;99.90
18207;DHT22;9229;52.354;20.886;2023-02-05T11:14:33;-1.00;99.90
18207;DHT22;9229;52.354;20.886;2023-02-05T11:19:36;-0.90;99.90
18207;DHT22;9229;52.354;20.886;2023-02-05T11:24:40;-0.90;99.90
18207;DHT22;9229;52.354;20.886;2023-02-05T11:29:42;-0.90;99.90
18207;DHT22;9229;52.354;20.886;2023-02-05T11:34:44;-0.80;99.90
18207;DHT22;9229;52.354;20.886;2023-02-05T11:40:00;-0.70;99.90
18207;DHT22;9229;52.354;20.886;2023-02-05T11:45:15;-0.70;99.90
18207;DHT22;9229;52.354;20.886;2023-02-05T11:50:24;-0.70;99.90
18207;DHT22;9229;52.354;20.886;2023-02-05T11:55:32;-0.80;99.90
18207;DHT22;9229;52.354;20.886;2023-02-05T12:00:35;-0.80;99.90
18207;DHT22;9229;52.354;20.886;2023-02-05T12:05:45;-0.80;99.90
18207;DHT22;9229;52.354;20.886;2023-02-05T12:10:56;-0.70;99.90
18207;DHT22;9229;52.354;20.886;2023-02-05T12:16:06;-0.70;99.90
18207;DHT22;9229;52.354;20.886;2023-02-05T12:21:20;-0.70;99.90
18207;DHT22;9229;52.354;20.886;2023-02-05T12:26:29;-0.70;99.90
18207;DHT22;9229;52.354;20.886;2023-02-05T12:31:46;-0.60;99.90
18207;DHT22;9229;52.354;20.886;2023-02-05T12:42:39;-0.60;99.90
18207;DHT22;9229;52.354;20.886;2023-02-05T12:48:14;-0.60;99.90
18207;DHT22;9229;52.354;20.886;2023-02-05T12:53:35;-0.60;99.90
18207;DHT22;9229;52.354;20.886;2023-02-05T12:58:45;-0.50;99.90
18207;DHT22;9229;52.354;20.886;2023-02-05T13:03:51;-0.40;99.90
18207;DHT22;9229;52.354;20.886;2023-02-05T13:08:59;-0.40;99.90
18207;DHT22;9229;52.354;20.886;2023-02-05T13:14:08;-0.40;99.90
18207;DHT22;9229;52.354;20.886;2023-02-05T13:19:23;-0.40;99.90
18207;DHT22;9229;52.354;20.886;2023-02-05T13:24:31;-0.40;99.90
18207;DHT22;9229;52.354;20.886;2023-02-05T13:29:53;-0.40;99.90
18207;DHT22;9229;52.354;20.886;2023-02-05T13:34:56;-0.50;99.90
18207;DHT22;9229;52.354;20.886;2023-02-05T13:40:21;-0.40;99.90
18207;DHT22;9229;52.354;20.886;2023-02-05T13:51:28;-0.40;99.90
18207;DHT22;9229;52.354;20.886;2023-02-05T13:56:46;-0.40;99.90
18207;DHT22;9229;52.354;20.886;2023-02-05T14:01:54;-0.50;99.90
18207;DHT22;9229;52.354;20.886;2023-02-05T14:06:59;-0.60;99.90
18207;DHT22;9229;52.354;20.886;2023-02-05T14:12:04;-0.60;99.90
18207;DHT22;9229;52.354;20.886;2023-02-05T14:22:45;-0.70;99.90
18207;DHT22;9229;52.354;20.886;2023-02-05T14:27:53;-0.70;99.90
18207;DHT22;9229;52.354;20.886;2023-02-05T14:32:58;-0.70;99.90
18207;DHT22;9229;52.354;20.886;2023-02-05T14:38:20;-0.70;99.90
18207;DHT22;9229;52.354;20.886;2023-02-05T14:43:29;-0.80;99.90
18207;DHT22;9229;52.354;20.886;2023-02-05T14:48:42;-0.90;99.90
18207;DHT22;9229;52.354;20.886;2023-02-05T14:53:56;-0.90;99.90
18207;DHT22;9229;52.354;20.886;2023-02-05T14:59:05;-1.00;99.90
18207;DHT22;9229;52.354;20.886;2023-02-05T15:04:21;-1.00;99.90
18207;DHT22;9229;52.354;20.886;2023-02-05T15:09:36;-1.10;99.90
18207;DHT22;9229;52.354;20.886;2023-02-05T15:14:40;-1.10;99.90
18207;DHT22;9229;52.354;20.886;2023-02-05T15:19:47;-1.10;99.90
18207;DHT22;9229;52.354;20.886;2023-02-05T15:24:53;-1.20;99.90
18207;DHT22;9229;52.354;20.886;2023-02-05T15:29:57;-1.20;99.90
18207;DHT22;9229;52.354;20.886;2023-02-05T15:35:11;-1.20;99.90
18207;DHT22;9229;52.354;20.886;2023-02-05T15:40:20;-1.20;99.90
18207;DHT22;9229;52.354;20.886;2023-02-05T15:45:26;-1.30;99.90
18207;DHT22;9229;52.354;20.886;2023-02-05T15:50:30;-1.30;99.90
18207;DHT22;9229;52.354;20.886;2023-02-05T15:55:34;-1.30;99.90
18207;DHT22;9229;52.354;20.886;2023-02-05T16:00:40;-1.40;99.90
18207;DHT22;9229;52.354;20.886;2023-02-05T16:05:51;-1.40;99.90
18207;DHT22;9229;52.354;20.886;2023-02-05T16:10:59;-1.50;99.90
18207;DHT22;9229;52.354;20.886;2023-02-05T16:16:15;-1.50;99.90
18207;DHT22;9229;52.354;20.886;2023-02-05T16:21:24;-1.60;99.90
18207;DHT22;9229;52.354;20.886;2023-02-05T16:26:37;-1.60;99.90
18207;DHT22;9229;52.354;20.886;2023-02-05T16:31:40;-1.70;99.90
18207;DHT22;9229;52.354;20.886;2023-02-05T16:36:45;-1.70;99.90
18207;DHT22;9229;52.354;20.886;2023-02-05T16:42:02;-1.70;99.90
18207;DHT22;9229;52.354;20.886;2023-02-05T16:47:10;-1.70;99.90
18207;DHT22;9229;52.354;20.886;2023-02-05T16:52:25;-1.80;99.90
18207;DHT22;9229;52.354;20.886;2023-02-05T16:57:31;-1.90;99.90
18207;DHT22;9229;52.354;20.886;2023-02-05T17:02:39;-2.00;99.90
18207;DHT22;9229;52.354;20.886;2023-02-05T17:07:42;-2.10;99.90
18207;DHT22;9229;52.354;20.886;2023-02-05T17:12:52;-2.20;99.90
18207;DHT22;9229;52.354;20.886;2023-02-05T17:17:56;-2.30;99.90
18207;DHT22;9229;52.354;20.886;2023-02-05T17:23:13;-2.30;99.90
18207;DHT22;9229;52.354;20.886;2023-02-05T17:28:19;-2.40;99.90
18207;DHT22;9229;52.354;20.886;2023-02-05T17:33:25;-2.50;99.90
18207;DHT22;9229;52.354;20.886;2023-02-05T17:38:32;-2.60;99.90
18207;DHT22;9229;52.354;20.886;2023-02-05T17:43:41;-2.70;99.90
18207;DHT22;9229;52.354;20.886;2023-02-05T17:48:43;-2.80;99.90
18207;DHT22;9229;52.354;20.886;2023-02-05T17:53:51;-2.80;99.90
18207;DHT22;9229;52.354;20.886;2023-02-05T17:58:55;-2.80;99.90
18207;DHT22;9229;52.354;20.886;2023-02-05T18:03:58;-2.90;99.90
18207;DHT22;9229;52.354;20.886;2023-02-05T18:09:03;-2.90;99.90
18207;DHT22;9229;52.354;20.886;2023-02-05T18:14:07;-2.90;99.90
18207;DHT22;9229;52.354;20.886;2023-02-05T18:19:09;-3.00;99.90
18207;DHT22;9229;52.354;20.886;2023-02-05T18:24:13;-3.00;99.90
18207;DHT22;9229;52.354;20.886;2023-02-05T18:29:16;-3.10;99.90
18207;DHT22;9229;52.354;20.886;2023-02-05T18:34:19;-3.20;99.90
18207;DHT22;9229;52.354;20.886;2023-02-05T18:39:21;-3.20;99.90
18207;DHT22;9229;52.354;20.886;2023-02-05T18:44:31;-3.30;99.90
18207;DHT22;9229;52.354;20.886;2023-02-05T18:49:33;-3.40;99.90
18207;DHT22;9229;52.354;20.886;2023-02-05T18:54:37;-3.40;99.90
18207;DHT22;9229;52.354;20.886;2023-02-05T18:59:41;-3.50;99.90
18207;DHT22;9229;52.354;20.886;2023-02-05T19:04:44;-3.50;99.90
18207;DHT22;9229;52.354;20.886;2023-02-05T19:09:53;-3.60;99.90
18207;DHT22;9229;52.354;20.886;2023-02-05T19:14:59;-3.60;99.90
18207;DHT22;9229;52.354;20.886;2023-02-05T19:20:03;-3.60;99.90
18207;DHT22;9229;52.354;20.886;2023-02-05T19:25:06;-3.70;99.90
18207;DHT22;9229;52.354;20.886;2023-02-05T19:30:11;-3.80;99.90
18207;DHT22;9229;52.354;20.886;2023-02-05T19:35:15;-3.90;99.90
18207;DHT22;9229;52.354;20.886;2023-02-05T19:40:19;-4.00;99.90
18207;DHT22;9229;52.354;20.886;2023-02-05T19:45:23;-4.00;99.90
18207;DHT22;9229;52.354;20.886;2023-02-05T19:50:25;-4.10;99.90
18207;DHT22;9229;52.354;20.886;2023-02-05T19:55:27;-4.30;99.90
18207;DHT22;9229;52.354;20.886;2023-02-05T20:00:31;-4.30;99.90
18207;DHT22;9229;52.354;20.886;2023-02-05T20:05:36;-4.40;99.90
18207;DHT22;9229;52.354;20.886;2023-02-05T20:10:55;-4.50;99.90
18207;DHT22;9229;52.354;20.886;2023-02-05T20:16:02;-4.60;99.90
18207;DHT22;9229;52.354;20.886;2023-02-05T20:21:07;-4.70;99.90
18207;DHT22;9229;52.354;20.886;2023-02-05T20:26:10;-4.80;99.90
18207;DHT22;9229;52.354;20.886;2023-02-05T20:31:15;-4.90;99.90
18207;DHT22;9229;52.354;20.886;2023-02-05T20:36:41;-4.90;99.90
18207;DHT22;9229;52.354;20.886;2023-02-05T20:41:47;-5.00;99.90
18207;DHT22;9229;52.354;20.886;2023-02-05T20:46:51;-5.10;99.90
18207;DHT22;9229;52.354;20.886;2023-02-05T20:51:53;-5.10;99.90
18207;DHT22;9229;52.354;20.886;2023-02-05T20:56:58;-5.20;99.90
18207;DHT22;9229;52.354;20.886;2023-02-05T21:02:02;-5.20;99.90
18207;DHT22;9229;52.354;20.886;2023-02-05T21:07:07;-5.40;99.90
18207;DHT22;9229;52.354;20.886;2023-02-05T21:12:09;-5.40;99.90
18207;DHT22;9229;52.354;20.886;2023-02-05T21:17:13;-5.40;99.90
18207;DHT22;9229;52.354;20.886;2023-02-05T21:22:15;-5.50;99.90
18207;DHT22;9229;52.354;20.886;2023-02-05T21:27:17;-5.50;99.90
18207;DHT22;9229;52.354;20.886;2023-02-05T21:32:24;-5.50;99.90
18207;DHT22;9229;52.354;20.886;2023-02-05T21:37:26;-5.50;99.90
18207;DHT22;9229;52.354;20.886;2023-02-05T21:42:29;-5.40;99.90
18207;DHT22;9229;52.354;20.886;2023-02-05T21:47:33;-5.40;99.90
18207;DHT22;9229;52.354;20.886;2023-02-05T21:52:35;-5.40;99.90
18207;DHT22;9229;52.354;20.886;2023-02-05T21:57:37;-5.40;99.90
18207;DHT22;9229;52.354;20.886;2023-02-05T22:02:41;-5.50;99.90
18207;DHT22;9229;52.354;20.886;2023-02-05T22:07:43;-5.50;99.90
18207;DHT22;9229;52.354;20.886;2023-02-05T22:12:45;-5.50;99.90
18207;DHT22;9229;52.354;20.886;2023-02-05T22:17:49;-5.60;99.90
18207;DHT22;9229;52.354;20.886;2023-02-05T22:22:51;-5.70;99.90
18207;DHT22;9229;52.354;20.886;2023-02-05T22:27:53;-5.70;99.90
18207;DHT22;9229;52.354;20.886;2023-02-05T22:32:57;-5.70;99.90
18207;DHT22;9229;52.354;20.886;2023-02-05T22:37:59;-5.70;99.90
18207;DHT22;9229;52.354;20.886;2023-02-05T22:43:05;-5.70;99.90
18207;DHT22;9229;52.354;20.886;2023-02-05T22:48:09;-5.70;99.90
18207;DHT22;9229;52.354;20.886;2023-02-05T22:53:12;-5.70;99.90
18207;DHT22;9229;52.354;20.886;2023-02-05T22:58:15;-5.80;99.90
18207;DHT22;9229;52.354;20.886;2023-02-05T23:03:19;-5.80;99.90
18207;DHT22;9229;52.354;20.886;2023-02-05T23:08:23;-5.90;99.90
18207;DHT22;9229;52.354;20.886;2023-02-05T23:13:25;-5.90;99.90
18207;DHT22;9229;52.354;20.886;2023-02-05T23:18:28;-5.90;99.90
18207;DHT22;9229;52.354;20.886;2023-02-05T23:23:30;-6.00;99.90
18207;DHT22;9229;52.354;20.886;2023-02-05T23:28:32;-6.00;99.90
18207;DHT22;9229;52.354;20.886;2023-02-05T23:33:37;-6.00;99.90
18207;DHT22;9229;52.354;20.886;2023-02-05T23:38:40;-6.00;99.90
18207;DHT22;9229;52.354;20.886;2023-02-05T23:43:42;-6.00;99.90
18207;DHT22;9229;52.354;20.886;2023-02-05T23:48:46;-6.00;99.90
18207;DHT22;9229;52.354;20.886;2023-02-05T23:53:48;-6.10;99.90
18207;DHT22;9229;52.354;20.886;2023-02-05T23:58:50;-6.10;99.90
